createdAt,value
2019-04-30T00:01:26.901Z,6.50
2019-04-30T00:04:09.199Z,5.60
2019-04-30T00:06:39.491Z,7.53
2019-04-30T00:09:09.757Z,6.17
2019-04-30T00:11:39.155Z,5.23
2019-04-30T00:14:07.639Z,3.90
2019-04-30T00:16:39.801Z,5.43
2019-04-30T00:19:10.593Z,4.53
2019-04-30T00:21:36.672Z,4.80
2019-04-30T00:24:10.014Z,5.20
2019-04-30T00:26:35.597Z,4.13
2019-04-30T00:29:05.152Z,4.70
2019-04-30T00:31:34.935Z,5.13
2019-04-30T00:34:05.057Z,6.00
2019-04-30T00:36:35.709Z,4.60
2019-04-30T00:39:08.878Z,4.47
2019-04-30T00:41:35.366Z,4.17
2019-04-30T00:44:05.391Z,4.37
2019-04-30T00:46:36.249Z,4.47
2019-04-30T00:49:11.625Z,4.33
2019-04-30T00:51:35.483Z,4.03
2019-04-30T00:54:05.659Z,5.27
2019-04-30T00:56:35.511Z,3.60
2019-04-30T00:59:07.161Z,3.97
2019-04-30T01:01:48.088Z,4.07
2019-04-30T01:04:19.426Z,3.80
2019-04-30T01:06:47.155Z,4.30
2019-04-30T01:09:15.854Z,3.60
2019-04-30T01:11:47.987Z,2.80
2019-04-30T01:14:14.567Z,4.20
2019-04-30T01:16:43.149Z,3.90
2019-04-30T01:19:21.293Z,4.20
2019-04-30T01:21:47.045Z,4.10
2019-04-30T01:24:12.208Z,4.40
2019-04-30T01:26:40.672Z,3.43
2019-04-30T01:29:10.275Z,3.90
2019-04-30T01:31:40.776Z,3.20
2019-04-30T01:34:12.394Z,3.60
2019-04-30T01:36:39.339Z,3.67
2019-04-30T01:39:09.477Z,3.73
2019-04-30T01:41:38.667Z,3.80
2019-04-30T01:44:11.835Z,3.37
2019-04-30T01:46:39.058Z,3.10
2019-04-30T01:49:08.638Z,2.77
2019-04-30T01:51:38.700Z,2.83
2019-04-30T01:54:09.155Z,3.73
2019-04-30T01:56:57.292Z,3.93
2019-04-30T01:59:29.126Z,3.20
2019-04-30T02:01:58.561Z,3.57
2019-04-30T02:04:28.999Z,3.70
2019-04-30T02:06:59.154Z,3.17
2019-04-30T02:09:28.656Z,2.60
2019-04-30T02:11:57.203Z,3.17
2019-04-30T02:14:25.813Z,3.20
2019-04-30T02:16:54.275Z,2.97
2019-04-30T02:19:22.756Z,3.70
2019-04-30T02:21:51.345Z,2.50
2019-04-30T02:24:19.828Z,2.90
2019-04-30T02:26:48.544Z,2.47
2019-04-30T02:29:19.022Z,2.93
2019-04-30T02:31:50.093Z,2.50
2019-04-30T02:34:25.742Z,2.40
2019-04-30T02:36:55.826Z,2.33
2019-04-30T02:39:24.271Z,2.77
2019-04-30T02:41:52.943Z,2.70
2019-04-30T02:44:21.423Z,3.40
2019-04-30T02:46:50.478Z,1.80
2019-04-30T02:49:20.465Z,2.40
2019-04-30T02:51:49.961Z,3.13
2019-04-30T02:54:23.988Z,2.23
2019-04-30T02:56:54.020Z,2.30
2019-04-30T02:59:22.564Z,2.33
2019-04-30T03:01:51.044Z,2.20
2019-04-30T03:04:19.878Z,2.20
2019-04-30T03:06:50.292Z,2.67
2019-04-30T03:09:20.166Z,2.77
2019-04-30T03:11:50.101Z,2.43
2019-04-30T03:14:20.048Z,1.50
2019-04-30T03:16:53.156Z,2.73
2019-04-30T03:19:22.521Z,2.97
2019-04-30T03:22:10.975Z,2.43
2019-04-30T03:24:42.652Z,2.70
2019-04-30T03:27:09.977Z,2.50
2019-04-30T03:29:40.503Z,2.30
2019-04-30T03:32:13.647Z,2.70
2019-04-30T03:34:41.962Z,2.83
2019-04-30T03:37:09.981Z,2.07
2019-04-30T03:39:39.960Z,2.87
2019-04-30T03:42:09.912Z,2.00
2019-04-30T03:44:40.030Z,2.17
2019-04-30T03:47:10.933Z,2.60
2019-04-30T03:49:40.227Z,2.27
2019-04-30T03:52:12.582Z,2.67
2019-04-30T03:54:40.910Z,2.83
2019-04-30T03:57:10.695Z,2.50
2019-04-30T03:59:39.952Z,2.63
2019-04-30T04:02:12.713Z,6.23
2019-04-30T04:04:42.329Z,2.10
2019-04-30T04:07:20.280Z,2.17
2019-04-30T04:09:50.669Z,2.47
2019-04-30T04:12:22.732Z,2.90
2019-04-30T04:14:51.524Z,2.07
2019-04-30T04:17:20.826Z,1.70
2019-04-30T04:19:50.233Z,6.33
2019-04-30T04:22:20.934Z,2.00
2019-04-30T04:24:50.529Z,3.57
2019-04-30T04:27:19.802Z,3.77
2019-04-30T04:29:51.106Z,3.50
2019-04-30T04:32:23.572Z,4.83
2019-04-30T04:34:50.530Z,4.40
2019-04-30T04:37:20.277Z,4.60
2019-04-30T04:39:50.096Z,5.63
2019-04-30T04:42:19.713Z,5.10
2019-04-30T04:44:50.207Z,5.73
2019-04-30T04:47:20.056Z,5.30
2019-04-30T04:49:53.102Z,8.50
2019-04-30T04:52:21.463Z,5.73
2019-04-30T04:54:50.943Z,5.67
2019-04-30T04:57:22.551Z,7.50
2019-04-30T04:59:50.289Z,6.73
2019-04-30T05:02:36.442Z,5.60
2019-04-30T05:05:06.032Z,5.07
2019-04-30T05:07:34.534Z,5.07
2019-04-30T05:10:03.534Z,5.80
2019-04-30T05:12:32.114Z,8.87
2019-04-30T05:15:00.602Z,4.60
2019-04-30T05:17:31.869Z,6.93
2019-04-30T05:19:59.514Z,5.60
2019-04-30T05:22:29.333Z,6.77
2019-04-30T05:24:58.924Z,7.70
2019-04-30T05:27:27.746Z,8.17
2019-04-30T05:29:56.201Z,6.83
2019-04-30T05:32:24.610Z,6.60
2019-04-30T05:34:53.181Z,7.60
2019-04-30T05:37:22.473Z,8.87
2019-04-30T05:39:51.072Z,8.90
2019-04-30T05:42:19.691Z,5.80
2019-04-30T05:44:49.752Z,7.70
2019-04-30T05:47:19.557Z,7.90
2019-04-30T05:49:48.869Z,7.70
2019-04-30T05:52:19.701Z,6.80
2019-04-30T05:54:48.751Z,7.90
2019-04-30T05:57:19.598Z,7.53
2019-04-30T05:59:48.760Z,6.63
2019-04-30T06:02:19.317Z,8.40
2019-04-30T06:04:48.895Z,9.30
2019-04-30T06:07:18.930Z,10.20
2019-04-30T06:09:50.342Z,8.40
2019-04-30T06:12:22.965Z,10.67
2019-04-30T06:14:55.645Z,7.67
2019-04-30T06:17:25.767Z,8.00
2019-04-30T06:19:54.355Z,8.80
2019-04-30T06:22:23.661Z,8.20
2019-04-30T06:24:52.143Z,7.80
2019-04-30T06:27:20.728Z,7.87
2019-04-30T06:29:49.209Z,7.33
2019-04-30T06:32:18.689Z,6.20
2019-04-30T06:34:49.586Z,6.17
2019-04-30T06:37:19.438Z,7.53
2019-04-30T06:39:50.109Z,7.10
2019-04-30T06:42:19.472Z,6.30
2019-04-30T06:44:49.407Z,6.07
2019-04-30T06:47:20.052Z,5.77
2019-04-30T06:49:48.863Z,6.50
2019-04-30T06:52:21.426Z,6.20
2019-04-30T06:54:49.747Z,5.43
2019-04-30T06:57:19.853Z,7.47
2019-04-30T06:59:51.314Z,8.00
2019-04-30T07:02:19.725Z,6.33
2019-04-30T07:04:49.098Z,6.17
2019-04-30T07:07:19.309Z,4.27
2019-04-30T07:09:55.846Z,4.87
2019-04-30T07:12:27.772Z,5.90
2019-04-30T07:14:54.540Z,4.77
2019-04-30T07:17:22.979Z,4.67
2019-04-30T07:19:56.553Z,4.57
2019-04-30T07:22:36.575Z,5.73
2019-04-30T07:24:52.340Z,5.30
2019-04-30T07:27:23.935Z,4.20
2019-04-30T07:29:51.073Z,4.67
2019-04-30T07:32:19.889Z,5.50
2019-04-30T07:34:49.544Z,5.03
2019-04-30T07:37:24.245Z,4.13
2019-04-30T07:39:49.305Z,4.63
2019-04-30T07:42:19.268Z,4.33
2019-04-30T07:44:50.072Z,4.20
2019-04-30T07:47:19.541Z,4.30
2019-04-30T07:49:53.011Z,4.60
2019-04-30T07:52:21.151Z,4.90
2019-04-30T07:54:51.575Z,5.10
2019-04-30T07:57:19.363Z,8.17
2019-04-30T07:59:49.882Z,9.90
2019-04-30T08:02:20.800Z,3.70
2019-04-30T08:04:51.213Z,4.53
2019-04-30T08:07:20.592Z,4.50
2019-04-30T08:09:49.591Z,4.57
2019-04-30T08:12:25.968Z,4.47
2019-04-30T08:14:49.595Z,4.20
2019-04-30T08:17:18.878Z,4.03
2019-04-30T08:19:49.007Z,3.70
2019-04-30T08:22:19.534Z,3.10
2019-04-30T08:24:49.165Z,3.37
2019-04-30T08:27:19.702Z,3.00
2019-04-30T08:29:49.882Z,2.70
2019-04-30T08:32:19.086Z,2.63
2019-04-30T08:34:49.978Z,2.20
2019-04-30T08:37:20.105Z,2.60
2019-04-30T08:39:49.706Z,2.17
2019-04-30T08:42:28.986Z,2.63
2019-04-30T08:44:48.743Z,2.10
2019-04-30T08:47:20.905Z,2.10
2019-04-30T08:49:49.557Z,2.30
2019-04-30T08:52:19.557Z,2.57
2019-04-30T08:54:49.640Z,2.73
2019-04-30T08:57:19.220Z,2.50
2019-04-30T08:59:49.453Z,2.30
2019-04-30T09:02:19.764Z,2.23
2019-04-30T09:04:50.129Z,2.97
2019-04-30T09:07:19.627Z,2.53
2019-04-30T09:09:49.965Z,3.23
2019-04-30T09:12:19.599Z,2.60
2019-04-30T09:14:49.094Z,2.03
2019-04-30T09:17:19.858Z,2.70
2019-04-30T09:19:48.972Z,2.70
2019-04-30T09:22:19.456Z,3.70
2019-04-30T09:24:49.758Z,3.23
2019-04-30T09:27:19.515Z,3.00
2019-04-30T09:29:49.210Z,2.97
2019-04-30T09:32:19.266Z,3.20
2019-04-30T09:34:48.814Z,2.50
2019-04-30T09:37:18.686Z,2.73
2019-04-30T09:39:49.503Z,2.67
2019-04-30T09:42:19.559Z,3.47
2019-04-30T09:44:49.304Z,3.00
2019-04-30T09:47:19.901Z,2.30
2019-04-30T09:49:49.404Z,2.63
2019-04-30T09:52:19.316Z,3.40
2019-04-30T09:54:50.069Z,3.40
2019-04-30T09:57:19.286Z,3.80
2019-04-30T09:59:48.612Z,3.50
2019-04-30T10:02:19.167Z,3.27
2019-04-30T10:04:48.176Z,3.73
2019-04-30T10:07:17.152Z,3.30
2019-04-30T10:09:45.626Z,3.60
2019-04-30T10:12:15.234Z,3.70
2019-04-30T10:14:43.718Z,3.10
2019-04-30T10:17:16.501Z,3.23
2019-04-30T10:19:45.194Z,3.23
2019-04-30T10:22:13.683Z,3.43
2019-04-30T10:24:42.160Z,3.83
2019-04-30T10:27:13.246Z,6.30
2019-04-30T10:29:41.237Z,3.67
2019-04-30T10:32:09.754Z,4.40
2019-04-30T10:34:38.347Z,4.50
2019-04-30T10:37:08.847Z,4.40
2019-04-30T10:39:38.923Z,3.53
2019-04-30T10:42:07.592Z,3.37
2019-04-30T10:44:36.686Z,3.30
2019-04-30T10:47:05.779Z,3.22
2019-04-30T10:49:34.884Z,4.33
2019-04-30T10:52:03.369Z,3.90
2019-04-30T10:54:31.848Z,3.47
2019-04-30T10:57:00.354Z,5.13
2019-04-30T10:59:28.819Z,5.40
2019-04-30T11:01:59.082Z,3.53
2019-04-30T11:04:27.629Z,4.40
2019-04-30T11:06:56.109Z,5.93
2019-04-30T11:09:25.628Z,4.83
2019-04-30T11:11:54.212Z,4.27
2019-04-30T11:14:22.689Z,3.43
2019-04-30T11:16:51.773Z,4.00
2019-04-30T11:19:20.630Z,3.90
2019-04-30T11:21:49.539Z,4.23
2019-04-30T11:24:19.606Z,5.20
2019-04-30T11:26:50.192Z,4.60
2019-04-30T11:29:18.671Z,4.40
2019-04-30T11:31:49.671Z,3.87
2019-04-30T11:34:18.446Z,4.47
2019-04-30T11:36:46.929Z,3.80
2019-04-30T11:39:18.612Z,5.10
2019-04-30T11:41:47.272Z,5.30
2019-04-30T11:44:28.540Z,5.50
2019-04-30T11:47:01.452Z,4.00
2019-04-30T11:49:29.927Z,4.43
2019-04-30T11:51:58.368Z,4.90
2019-04-30T11:54:26.896Z,4.00
2019-04-30T11:56:55.343Z,4.87
2019-04-30T11:59:23.864Z,5.07
2019-04-30T12:01:54.085Z,3.87
2019-04-30T12:04:22.574Z,4.83
2019-04-30T12:06:52.187Z,5.30
2019-04-30T12:09:28.539Z,9.27
2019-04-30T12:11:58.646Z,4.83
2019-04-30T12:14:27.246Z,4.70
2019-04-30T12:16:55.955Z,5.20
2019-04-30T12:19:24.405Z,6.37
2019-04-30T12:21:52.915Z,4.53
2019-04-30T12:24:21.503Z,9.33
2019-04-30T12:26:49.984Z,4.80
2019-04-30T12:29:19.116Z,4.10
2019-04-30T12:31:47.871Z,5.13
2019-04-30T12:34:16.457Z,4.73
2019-04-30T12:36:44.940Z,5.30
2019-04-30T12:39:13.634Z,6.23
2019-04-30T12:41:42.116Z,4.73
2019-04-30T12:44:10.601Z,8.63
2019-04-30T12:46:39.186Z,7.20
2019-04-30T12:49:10.251Z,5.97
2019-04-30T12:51:46.065Z,5.00
2019-04-30T12:54:12.627Z,4.23
2019-04-30T12:56:42.748Z,5.90
2019-04-30T12:59:11.229Z,5.40
2019-04-30T13:01:40.032Z,5.70
2019-04-30T13:04:09.764Z,5.50
2019-04-30T13:06:39.024Z,6.50
2019-04-30T13:09:10.945Z,6.17
2019-04-30T13:11:40.609Z,5.23
2019-04-30T13:14:10.607Z,6.13
2019-04-30T13:16:39.730Z,4.97
2019-04-30T13:19:09.286Z,5.90
2019-04-30T13:21:39.541Z,7.17
2019-04-30T13:24:08.313Z,6.67
2019-04-30T13:26:36.953Z,9.93
2019-04-30T13:29:07.063Z,10.50
2019-04-30T13:31:35.884Z,9.07
2019-04-30T13:34:22.200Z,5.53
2019-04-30T13:36:50.851Z,5.80
2019-04-30T13:39:26.787Z,4.47
2019-04-30T13:41:59.258Z,10.10
2019-04-30T13:44:29.505Z,7.43
2019-04-30T13:46:57.987Z,5.47
2019-04-30T13:49:30.069Z,8.87
2019-04-30T13:51:56.663Z,8.30
2019-04-30T13:54:25.111Z,6.20
2019-04-30T13:56:53.667Z,8.10
2019-04-30T13:59:22.151Z,6.10
2019-04-30T14:01:50.637Z,7.43
2019-04-30T14:04:21.268Z,5.83
2019-04-30T14:07:00.311Z,6.07
2019-04-30T14:09:30.524Z,6.67
2019-04-30T14:11:59.008Z,7.30
2019-04-30T14:14:29.227Z,6.30
2019-04-30T14:16:58.678Z,4.97
2019-04-30T14:19:29.538Z,5.90
2019-04-30T14:21:58.994Z,6.27
2019-04-30T14:24:27.567Z,5.90
2019-04-30T14:26:56.054Z,6.53
2019-04-30T14:29:24.538Z,5.50
2019-04-30T14:31:53.125Z,6.70
2019-04-30T14:34:21.605Z,6.60
2019-04-30T14:36:50.089Z,6.93
2019-04-30T14:39:20.269Z,7.60
2019-04-30T14:41:51.683Z,6.93
2019-04-30T14:44:31.167Z,7.07
2019-04-30T14:47:01.961Z,6.93
2019-04-30T14:49:59.734Z,6.47
2019-04-30T14:52:19.388Z,6.13
2019-04-30T14:54:50.445Z,6.07
2019-04-30T14:57:30.090Z,5.50
2019-04-30T15:00:06.044Z,8.10
2019-04-30T15:02:36.271Z,6.33
2019-04-30T15:05:06.353Z,6.13
2019-04-30T15:07:34.874Z,6.70
2019-04-30T15:10:04.782Z,5.90
2019-04-30T15:12:33.277Z,6.77
2019-04-30T15:15:01.761Z,6.80
2019-04-30T15:17:30.347Z,6.60
2019-04-30T15:19:58.962Z,5.90
2019-04-30T15:22:29.091Z,6.80
2019-04-30T15:24:59.177Z,7.30
2019-04-30T15:27:28.963Z,6.97
2019-04-30T15:29:57.686Z,6.40
2019-04-30T15:32:26.208Z,9.07
2019-04-30T15:34:54.746Z,6.67
2019-04-30T15:37:24.081Z,8.20
2019-04-30T15:39:52.742Z,8.30
2019-04-30T15:42:21.941Z,7.47
2019-04-30T15:44:50.428Z,6.43
2019-04-30T15:47:19.420Z,7.43
2019-04-30T15:49:47.906Z,9.23
2019-04-30T15:52:16.491Z,6.93
2019-04-30T15:54:45.081Z,6.77
2019-04-30T15:57:13.561Z,7.90
2019-04-30T15:59:42.050Z,7.30
2019-04-30T16:02:14.934Z,9.40
2019-04-30T16:04:49.193Z,8.07
2019-04-30T16:07:19.621Z,7.77
2019-04-30T16:09:58.918Z,9.93
2019-04-30T16:12:48.596Z,7.60
2019-04-30T16:15:18.507Z,9.23
2019-04-30T16:17:49.300Z,8.90
2019-04-30T16:20:18.045Z,7.73
2019-04-30T16:22:46.630Z,7.90
2019-04-30T16:25:15.123Z,8.63
2019-04-30T16:27:43.600Z,8.93
2019-04-30T16:30:12.199Z,8.40
2019-04-30T16:32:40.666Z,8.10
2019-04-30T16:35:09.160Z,8.37
2019-04-30T16:37:38.742Z,8.57
2019-04-30T16:40:08.300Z,9.40
2019-04-30T16:42:39.561Z,8.83
2019-04-30T16:45:09.276Z,8.90
2019-04-30T16:47:38.024Z,9.97
2019-04-30T16:50:08.964Z,9.10
2019-04-30T16:52:39.334Z,8.87
2019-04-30T16:55:08.083Z,8.27
2019-04-30T16:57:36.670Z,12.10
2019-04-30T17:00:09.387Z,10.80
2019-04-30T17:02:39.677Z,8.60
2019-04-30T17:05:19.826Z,10.10
2019-04-30T17:08:01.624Z,9.17
2019-04-30T17:10:36.977Z,9.30
2019-04-30T17:13:15.916Z,10.67
2019-04-30T17:15:46.129Z,9.97
2019-04-30T17:18:14.615Z,9.20
2019-04-30T17:20:43.098Z,9.37
2019-04-30T17:23:11.788Z,9.47
2019-04-30T17:25:40.271Z,9.27
2019-04-30T17:28:09.291Z,10.07
2019-04-30T17:30:39.199Z,10.23
2019-04-30T17:33:09.496Z,9.27
2019-04-30T17:35:38.766Z,11.63
2019-04-30T17:38:07.707Z,12.33
2019-04-30T17:40:36.205Z,11.60
2019-04-30T17:43:04.777Z,10.80
2019-04-30T17:45:33.466Z,11.27
2019-04-30T17:48:01.948Z,11.13
2019-04-30T17:50:30.429Z,10.83
2019-04-30T17:53:00.735Z,10.97
2019-04-30T17:55:29.350Z,11.37
2019-04-30T17:57:58.548Z,10.50
2019-04-30T18:00:29.327Z,11.40
2019-04-30T18:02:57.972Z,12.30
2019-04-30T18:05:26.431Z,12.50
2019-04-30T18:07:54.949Z,12.63
2019-04-30T18:10:23.523Z,14.60
2019-04-30T18:12:52.007Z,10.63
2019-04-30T18:15:22.228Z,12.10
2019-04-30T18:17:55.366Z,12.57
2019-04-30T18:20:25.472Z,11.10
2019-04-30T18:22:58.747Z,11.07
2019-04-30T18:25:28.847Z,11.27
2019-04-30T18:28:05.030Z,12.27
2019-04-30T18:30:40.373Z,11.37
2019-04-30T18:33:09.860Z,11.33
2019-04-30T18:35:38.971Z,13.63
2019-04-30T18:38:09.626Z,13.53
2019-04-30T18:40:39.543Z,13.23
2019-04-30T18:43:08.586Z,13.70
2019-04-30T18:45:39.389Z,12.67
2019-04-30T18:48:09.555Z,11.70
2019-04-30T18:50:37.775Z,14.90
2019-04-30T18:53:08.676Z,12.50
2019-04-30T18:55:37.296Z,13.30
2019-04-30T18:58:05.988Z,13.60
2019-04-30T19:00:36.104Z,11.60
2019-04-30T19:03:04.687Z,11.67
2019-04-30T19:05:33.381Z,12.07
2019-04-30T19:08:05.921Z,14.53
2019-04-30T19:10:36.044Z,13.40
2019-04-30T19:13:12.062Z,15.10
2019-04-30T19:16:17.940Z,13.80
2019-04-30T19:18:26.114Z,16.13
2019-04-30T19:20:56.026Z,13.77
2019-04-30T19:23:24.506Z,14.87
2019-04-30T19:25:53.089Z,12.97
2019-04-30T19:28:21.580Z,14.30
2019-04-30T19:30:58.018Z,14.53
2019-04-30T19:33:20.392Z,14.10
2019-04-30T19:35:50.696Z,15.17
2019-04-30T19:38:19.404Z,14.43
2019-04-30T19:40:49.371Z,14.97
2019-04-30T19:43:18.012Z,15.80
2019-04-30T19:45:46.507Z,16.60
2019-04-30T19:48:16.198Z,14.17
2019-04-30T19:50:45.108Z,15.70
2019-04-30T19:53:13.585Z,17.40
2019-04-30T19:55:42.171Z,18.07
2019-04-30T19:58:14.529Z,17.73
2019-04-30T20:00:40.878Z,14.23
2019-04-30T20:03:09.471Z,15.17
2019-04-30T20:05:39.410Z,17.23
2019-04-30T20:08:10.790Z,15.40
2019-04-30T20:10:39.929Z,14.80
2019-04-30T20:13:10.557Z,16.80
2019-04-30T20:15:39.295Z,14.60
2019-04-30T20:18:09.001Z,16.87
2019-04-30T20:20:39.826Z,13.60
2019-04-30T20:23:08.499Z,16.03
2019-04-30T20:25:37.082Z,16.53
2019-04-30T20:28:05.563Z,13.37
2019-04-30T20:30:34.049Z,13.77
2019-04-30T20:33:02.660Z,13.10
2019-04-30T20:35:31.117Z,16.27
2019-04-30T20:38:19.383Z,15.67
2019-04-30T20:40:59.597Z,15.23
2019-04-30T20:43:19.920Z,15.27
2019-04-30T20:45:48.509Z,14.37
2019-04-30T20:48:18.722Z,17.30
2019-04-30T20:50:47.421Z,14.43
2019-04-30T20:53:16.006Z,16.90
2019-04-30T20:55:44.493Z,16.20
2019-04-30T20:58:13.076Z,16.00
2019-04-30T21:00:41.713Z,16.00
2019-04-30T21:03:10.248Z,17.37
2019-04-30T21:05:38.818Z,16.20
2019-04-30T21:08:07.525Z,16.40
2019-04-30T21:10:36.002Z,15.33
2019-04-30T21:13:04.796Z,14.60
2019-04-30T21:15:33.386Z,17.80
2019-04-30T21:18:01.864Z,16.50
2019-04-30T21:20:30.349Z,15.77
2019-04-30T21:22:59.650Z,14.00
2019-04-30T21:25:29.187Z,14.17
2019-04-30T21:27:59.934Z,15.37
2019-04-30T21:30:28.175Z,16.10
2019-04-30T21:33:04.448Z,16.53
2019-04-30T21:35:34.670Z,16.93
2019-04-30T21:38:03.129Z,17.40
2019-04-30T21:40:31.632Z,16.60
2019-04-30T21:43:00.223Z,17.00
2019-04-30T21:45:29.155Z,15.20
2019-04-30T21:48:01.426Z,16.60
2019-04-30T21:50:29.665Z,15.13
2019-04-30T21:52:59.776Z,13.20
2019-04-30T21:55:29.606Z,16.37
2019-04-30T21:57:59.475Z,16.63
2019-04-30T22:00:41.913Z,16.33
2019-04-30T22:03:10.523Z,14.70
2019-04-30T22:05:39.005Z,18.13
2019-04-30T22:08:09.126Z,16.20
2019-04-30T22:10:37.812Z,20.83
2019-04-30T22:13:06.296Z,17.20
2019-04-30T22:15:34.787Z,18.53
2019-04-30T22:18:03.469Z,17.23
2019-04-30T22:20:32.158Z,17.73
2019-04-30T22:23:00.642Z,16.47
2019-04-30T22:25:29.416Z,18.27
2019-04-30T22:27:57.915Z,16.80
2019-04-30T22:30:26.401Z,20.60
2019-04-30T22:32:54.987Z,18.87
2019-04-30T22:35:27.566Z,20.97
2019-04-30T22:37:59.241Z,22.30
2019-04-30T22:40:31.322Z,17.73
2019-04-30T22:42:59.330Z,17.70
2019-04-30T22:45:29.690Z,18.60
2019-04-30T22:47:58.925Z,18.77
2019-04-30T22:50:27.587Z,20.10
2019-04-30T22:52:56.130Z,17.97
2019-04-30T22:55:24.753Z,21.30
2019-04-30T22:57:53.252Z,19.77
2019-04-30T23:00:23.361Z,19.57
2019-04-30T23:02:53.513Z,19.70
2019-04-30T23:05:21.972Z,18.10
2019-04-30T23:07:50.446Z,16.60
2019-04-30T23:10:19.040Z,16.10
2019-04-30T23:12:47.514Z,15.67
2019-04-30T23:15:16.351Z,17.20
2019-04-30T23:17:44.901Z,18.00
2019-04-30T23:20:13.530Z,14.70
2019-04-30T23:22:42.065Z,16.10
2019-04-30T23:25:10.578Z,14.40
2019-04-30T23:27:39.031Z,16.17
2019-04-30T23:30:07.826Z,15.70
2019-04-30T23:32:36.618Z,12.37
2019-04-30T23:35:05.627Z,16.20
2019-04-30T23:37:34.093Z,17.73
2019-04-30T23:40:39.241Z,17.20
2019-04-30T23:43:07.722Z,17.20
2019-04-30T23:45:36.206Z,13.77
2019-04-30T23:48:04.706Z,14.67
2019-04-30T23:50:32.948Z,16.00
2019-04-30T23:53:01.446Z,12.53
2019-04-30T23:55:30.036Z,12.80
2019-04-30T23:57:58.480Z,16.00
